Time;durP1;ratioP1;P1;durP2;ratioP2;P2;SDS_P1;SDS_P2;PMS_P1;PMS_P2;Temp;Humidity;BMP_temperature;BMP_pressure;BME280_temperature;BME280_humidity;BME280_pressure;Samples;Min_cycle;Max_cycle;Signal;HPM_P1;HPM_P2
2022/11/04 00:01:41;;;;;;;25.70;11.30;;;;;;;8.12;76.33;100024.80;106967;1244;101229;-66
2022/11/04 00:04:07;;;;;;;27.00;11.50;;;;;;;8.10;76.50;100021.87;106967;1247;99017;-66
2022/11/04 00:06:33;;;;;;;25.10;11.60;;;;;;;8.08;76.41;100015.71;106789;1248;140393;-66
2022/11/04 00:08:58;;;;;;;25.30;12.50;;;;;;;8.07;76.54;100009.56;106956;1236;99016;-66
2022/11/04 00:14:10;;;;;;;26.80;12.30;;;;;;;8.05;76.55;100013.75;106966;1243;99074;-66
2022/11/04 00:19:20;;;;;;;33.20;12.10;;;;;;;8.02;76.52;100012.79;106947;1241;112805;-66
2022/11/04 00:29:39;;;;;;;28.30;12.10;;;;;;;8.00;76.76;100001.68;106833;1245;139715;-66
2022/11/04 00:34:48;;;;;;;28.30;11.70;;;;;;;7.99;76.74;99997.42;106860;1240;138813;-70
2022/11/04 00:37:13;;;;;;;30.10;12.10;;;;;;;8.00;76.79;99993.70;106919;1242;99044;-66
2022/11/04 00:39:39;;;;;;;32.70;13.20;;;;;;;8.00;76.86;99996.68;107002;1242;99034;-66
2022/11/04 00:42:04;;;;;;;27.70;12.30;;;;;;;8.01;76.87;99987.94;106827;1243;138491;-66
2022/11/04 00:44:29;;;;;;;29.20;13.00;;;;;;;8.00;76.77;99982.44;106897;1251;99066;-66
2022/11/04 00:46:55;;;;;;;31.60;13.80;;;;;;;8.02;76.94;99983.81;106883;1241;139180;-66
2022/11/04 00:49:22;;;;;;;28.90;11.70;;;;;;;8.03;76.91;99980.93;107045;1240;99032;-66
2022/11/04 00:51:47;;;;;;;32.60;12.40;;;;;;;8.05;77.02;99976.55;106986;1250;98980;-66
2022/11/04 00:54:13;;;;;;;29.10;12.10;;;;;;;8.06;76.98;99972.23;106802;1243;138744;-66
2022/11/04 00:56:39;;;;;;;29.20;12.00;;;;;;;8.08;77.11;99975.00;106911;1248;99020;-66
2022/11/04 00:59:05;;;;;;;31.80;12.90;;;;;;;8.10;77.05;99973.48;106866;1242;139090;-66
2022/11/04 01:01:30;;;;;;;27.10;11.60;;;;;;;8.11;77.04;99972.19;106997;1241;99075;-66
2022/11/04 01:03:56;;;;;;;25.70;12.30;;;;;;;8.12;77.15;99969.66;106935;1249;98957;-66
2022/11/04 01:06:23;;;;;;;32.00;12.10;;;;;;;8.13;77.18;99962.15;106865;1247;138557;-66
2022/11/04 01:08:54;;;;;;;32.30;12.90;;;;;;;8.14;77.26;99950.71;106892;1251;113052;-66
2022/11/04 01:11:19;;;;;;;;;;;;;;;8.15;77.23;99942.99;106921;1235;138668;-66
2022/11/04 01:13:45;;;;;;;33.30;12.50;;;;;;;8.13;77.25;99940.40;106885;1241;98951;-66
2022/11/04 01:16:11;;;;;;;32.00;12.80;;;;;;;8.13;77.29;99933.82;106965;1248;99166;-66
2022/11/04 01:18:37;;;;;;;25.30;11.60;;;;;;;8.13;77.35;99931.55;106807;1241;138475;-66
2022/11/04 01:21:04;;;;;;;28.30;11.90;;;;;;;8.12;77.33;99926.58;106917;1251;99083;-66
2022/11/04 01:23:31;;;;;;;29.00;12.10;;;;;;;8.12;77.38;99924.98;106819;1241;138865;-66
2022/11/04 01:25:56;;;;;;;29.10;12.30;;;;;;;8.13;77.43;99922.83;106917;1239;99048;-66
2022/11/04 01:28:22;;;;;;;31.50;12.30;;;;;;;8.14;77.49;99917.27;106976;1238;112449;-66
2022/11/04 01:30:47;;;;;;;29.80;12.20;;;;;;;8.14;77.43;99913.70;106696;1238;138519;-66
2022/11/04 01:33:12;;;;;;;26.90;11.90;;;;;;;8.15;77.48;99913.28;106899;1248;99030;-66
2022/11/04 01:35:38;;;;;;;28.40;12.80;;;;;;;8.16;77.54;99914.14;106893;1254;139096;-66
2022/11/04 01:38:03;;;;;;;23.10;10.70;;;;;;;8.16;77.57;99911.48;107040;1245;99037;-66
2022/11/04 01:40:29;;;;;;;29.70;12.50;;;;;;;8.16;77.48;99914.67;106963;1250;107680;-67
2022/11/04 01:42:54;;;;;;;29.20;13.50;;;;;;;8.16;77.55;99915.38;106909;1233;139500;-67
2022/11/04 01:45:21;;;;;;;23.30;10.50;;;;;;;8.16;77.58;99910.75;106976;1251;99709;-66
2022/11/04 01:48:04;;;;;;;27.00;12.20;;;;;;;8.16;77.53;99909.86;106849;1249;138888;-66
2022/11/04 01:50:32;;;;;;;29.60;11.80;;;;;;;8.16;77.58;99913.25;106909;1227;107383;-67
2022/11/04 01:53:04;;;;;;;30.20;11.30;;;;;;;8.14;77.65;99907.10;106862;1243;138736;-67
2022/11/04 01:55:33;;;;;;;30.60;12.00;;;;;;;8.15;77.70;99904.73;106961;1243;99013;-66
2022/11/04 01:58:05;;;;;;;25.80;11.20;;;;;;;8.16;77.73;99895.63;107069;1241;112285;-67
2022/11/04 02:00:32;;;;;;;23.00;11.50;;;;;;;8.17;77.73;99892.05;106827;1244;138609;-67
2022/11/04 02:03:09;;;;;;;26.80;10.70;;;;;;;8.17;77.80;99887.95;107045;1238;99203;-66
2022/11/04 02:05:36;;;;;;;26.50;11.10;;;;;;;8.18;77.83;99889.69;106791;1243;139496;-66
2022/11/04 02:08:05;;;;;;;22.90;11.10;;;;;;;8.18;77.84;99886.13;106915;1251;99092;-66
2022/11/04 02:10:32;;;;;;;28.30;12.40;;;;;;;8.18;77.85;99885.78;106969;1251;112533;-67
2022/11/04 02:12:59;;;;;;;29.20;11.40;;;;;;;8.16;77.85;99878.00;106829;1227;139762;-66
2022/11/04 02:16:07;;;;;;;25.70;11.50;;;;;;;8.17;77.87;99878.87;106933;1235;99164;-66
2022/11/04 02:18:54;;;;;;;26.40;12.10;;;;;;;8.15;77.95;99870.23;106783;1244;138889;-66
2022/11/04 02:21:25;;;;;;;22.70;10.50;;;;;;;8.13;77.91;99861.79;106948;1237;99346;-66
2022/11/04 02:24:21;;;;;;;30.10;11.10;;;;;;;8.11;77.94;99856.70;106820;1250;138860;-66
2022/11/04 02:27:14;;;;;;;25.50;11.70;;;;;;;8.09;77.98;99854.30;107003;1235;102249;-66
2022/11/04 02:29:42;;;;;;;23.90;10.70;;;;;;;8.08;78.01;99851.85;106799;1235;138742;-66
2022/11/04 02:32:18;;;;;;;25.30;11.40;;;;;;;8.07;78.07;99853.52;106956;1236;99063;-66
2022/11/04 02:34:59;;;;;;;34.60;12.20;;;;;;;8.05;78.08;99857.72;106905;1242;100068;-66
2022/11/04 02:37:56;;;;;;;25.40;11.10;;;;;;;8.02;78.12;99859.95;106883;1235;112589;-66
2022/11/04 02:40:32;;;;;;;28.40;11.20;;;;;;;8.00;78.11;99862.37;106950;1240;101605;-66
2022/11/04 02:43:39;;;;;;;29.20;10.50;;;;;;;7.98;78.16;99854.98;106913;1246;138771;-66
2022/11/04 02:46:43;;;;;;;24.30;10.20;;;;;;;7.95;78.10;99851.94;106927;1248;98914;-66
2022/11/04 02:49:12;;;;;;;26.90;12.00;;;;;;;7.93;78.23;99851.68;106873;1240;138283;-66
2022/11/04 02:51:47;;;;;;;25.00;11.60;;;;;;;7.90;78.25;99851.79;107009;1245;111814;-66
2022/11/04 02:54:25;;;;;;;25.90;11.90;;;;;;;7.88;78.17;99849.77;106912;1244;138950;-66
2022/11/04 02:56:52;;;;;;;25.40;11.40;;;;;;;7.87;78.29;99847.14;106964;1235;107568;-66
2022/11/04 02:59:38;;;;;;;30.40;10.40;;;;;;;7.87;78.38;99842.86;106761;1245;138711;-66
2022/11/04 03:02:08;;;;;;;26.30;12.00;;;;;;;7.87;78.37;99837.02;106899;1237;99320;-66
2022/11/04 03:04:38;;;;;;;28.20;12.80;;;;;;;7.85;78.31;99832.11;106977;1237;112214;-66
2022/11/04 03:07:09;;;;;;;22.60;11.10;;;;;;;7.83;78.39;99830.75;106745;1235;139074;-66
2022/11/04 03:09:37;;;;;;;26.30;12.10;;;;;;;7.83;78.39;99831.32;106838;1235;107448;-66
2022/11/04 03:12:09;;;;;;;27.40;12.30;;;;;;;7.81;78.49;99829.79;106807;1229;138775;-66
2022/11/04 03:14:39;;;;;;;25.80;12.20;;;;;;;7.81;78.53;99826.05;106926;1235;99056;-66
2022/11/04 03:17:11;;;;;;;31.70;14.00;;;;;;;7.80;78.53;99826.30;106828;1249;138532;-66
2022/11/04 03:19:55;;;;;;;37.30;13.90;;;;;;;7.79;78.55;99819.60;106969;1227;98210;-66
2022/11/04 03:22:39;;;;;;;28.90;11.90;;;;;;;7.78;78.65;99816.06;106951;1234;107474;-66
2022/11/04 03:25:06;;;;;;;30.70;13.80;;;;;;;7.78;78.64;99815.89;106870;1237;139385;-66
2022/11/04 03:27:40;;;;;;;33.80;14.50;;;;;;;7.77;78.65;99818.25;107001;1227;99228;-66
2022/11/04 03:30:13;;;;;;;25.30;12.60;;;;;;;7.78;78.63;99814.67;106850;1236;138526;-66
2022/11/04 03:33:03;;;;;;;31.80;12.60;;;;;;;7.79;78.73;99807.53;106841;1236;99382;-66
2022/11/04 03:35:31;;;;;;;26.60;12.90;;;;;;;7.79;78.74;99806.78;106776;1244;138686;-66
2022/11/04 03:37:57;;;;;;;36.00;13.80;;;;;;;7.80;78.80;99809.23;106877;1249;99046;-66
2022/11/04 03:40:22;;;;;;;26.70;13.80;;;;;;;7.80;78.80;99810.10;106935;1236;97987;-66
2022/11/04 03:43:17;;;;;;;25.90;12.10;;;;;;;7.80;78.79;99812.42;106960;1235;139787;-66
2022/11/04 03:45:42;;;;;;;35.80;14.00;;;;;;;7.80;78.94;99809.56;106975;1249;107246;-66
2022/11/04 03:48:08;;;;;;;27.30;13.00;;;;;;;7.81;78.91;99807.93;106852;1239;139849;-66
2022/11/04 03:50:49;;;;;;;30.80;14.10;;;;;;;7.80;78.96;99809.23;106996;1245;100929;-66
2022/11/04 03:53:20;;;;;;;34.90;13.70;;;;;;;7.80;78.97;99810.63;106829;1236;138663;-66
2022/11/04 03:56:14;;;;;;;34.70;15.20;;;;;;;7.80;78.91;99809.04;107029;1231;107414;-66
2022/11/04 03:58:47;;;;;;;30.20;13.50;;;;;;;7.79;79.03;99810.35;106960;1228;100453;-66
2022/11/04 04:01:31;;;;;;;31.60;13.60;;;;;;;7.78;79.06;99810.20;106791;1237;138645;-66
2022/11/04 04:04:28;;;;;;;28.70;13.00;;;;;;;7.77;79.19;99819.17;106837;1247;112302;-66
2022/11/04 04:07:04;;;;;;;31.60;14.80;;;;;;;7.75;79.15;99816.75;106829;1243;138876;-66
2022/11/04 04:09:44;;;;;;;36.30;15.70;;;;;;;7.75;79.18;99810.17;106910;1234;106694;-66
2022/11/04 04:12:25;;;;;;;26.80;13.50;;;;;;;7.73;79.12;99808.11;106797;1235;139607;-66
2022/11/04 04:14:54;;;;;;;29.10;13.10;;;;;;;7.72;79.23;99802.66;106953;1247;98981;-66
2022/11/04 04:17:31;;;;;;;32.20;14.50;;;;;;;7.71;79.30;99799.53;106965;1238;139014;-66
2022/11/04 04:20:01;;;;;;;41.10;15.50;;;;;;;7.69;79.26;99797.84;107096;1248;99586;-66
2022/11/04 04:22:35;;;;;;;30.50;15.40;;;;;;;7.67;79.28;99797.91;107062;1247;107577;-66
2022/11/04 04:27:52;;;;;;;33.70;15.20;;;;;;;7.64;79.35;99790.05;106974;1243;99221;-66
2022/11/04 04:30:17;;;;;;;36.30;15.20;;;;;;;7.61;79.35;99793.73;106913;1233;138307;-66
2022/11/04 04:32:51;;;;;;;31.80;14.50;;;;;;;7.59;79.32;99792.80;106982;1243;98985;-66
2022/11/04 04:46:31;;;;;;;26.20;14.40;;;;;;;7.46;79.60;99788.37;106932;1236;99103;-66
2022/11/04 04:49:04;;;;;;;34.40;15.00;;;;;;;7.45;79.63;99790.55;106850;1241;138584;-66
2022/11/04 04:51:30;;;;;;;29.90;15.30;;;;;;;7.43;79.67;99788.67;106976;1247;98957;-66
2022/11/04 04:53:55;;;;;;;36.90;15.90;;;;;;;7.42;79.61;99786.96;106916;1244;138425;-66
2022/11/04 04:56:21;;;;;;;36.40;15.70;;;;;;;7.40;79.71;99786.33;107039;1241;99045;-66
2022/11/04 04:58:46;;;;;;;32.30;15.50;;;;;;;7.38;79.67;99784.82;106992;1243;97887;-66
2022/11/04 05:01:11;;;;;;;37.50;16.50;;;;;;;7.36;79.78;99779.73;107003;1230;138341;-66
2022/11/04 05:03:36;;;;;;;37.10;16.20;;;;;;;7.34;79.76;99779.11;106988;1251;99098;-66
2022/11/04 05:06:02;;;;;;;37.50;16.90;;;;;;;7.34;79.86;99781.43;106839;1236;138348;-66
2022/11/04 05:08:27;;;;;;;34.30;15.90;;;;;;;7.32;79.85;99779.02;106977;1241;99069;-66
2022/11/04 05:10:52;;;;;;;34.70;14.70;;;;;;;7.34;79.92;99783.76;106973;1235;100796;-66
2022/11/04 05:13:28;;;;;;;36.30;15.00;;;;;;;7.35;79.84;99781.39;106948;1227;138474;-66
2022/11/04 05:15:55;;;;;;;38.30;16.60;;;;;;;7.34;79.90;99784.26;107020;1235;106671;-66
2022/11/04 05:18:20;;;;;;;28.60;14.50;;;;;;;7.32;79.93;99780.30;106810;1236;138970;-66
2022/11/04 05:20:45;;;;;;;32.90;15.30;;;;;;;7.30;80.01;99778.57;107025;1250;99042;-66
2022/11/04 05:23:12;;;;;;;28.00;14.90;;;;;;;7.30;80.03;99776.63;106845;1243;138628;-66
2022/11/04 05:25:38;;;;;;;34.00;15.00;;;;;;;7.28;79.97;99776.56;106865;1235;98978;-66
2022/11/04 05:28:04;;;;;;;33.50;15.80;;;;;;;7.26;80.11;99774.16;106859;1229;99031;-66
2022/11/04 05:30:30;;;;;;;32.40;15.40;;;;;;;7.25;80.02;99773.16;106888;1243;138384;-66
2022/11/04 05:32:55;;;;;;;37.00;16.40;;;;;;;7.23;80.04;99769.67;107005;1227;99040;-66
2022/11/04 05:35:20;;;;;;;29.30;14.70;;;;;;;7.21;80.13;99770.48;106829;1227;138572;-66
2022/11/04 05:37:46;;;;;;;39.50;16.20;;;;;;;7.20;80.19;99770.35;106945;1244;97358;-66
2022/11/04 05:40:11;;;;;;;34.90;16.20;;;;;;;7.19;80.18;99772.70;106959;1235;99068;-66
2022/11/04 05:42:37;;;;;;;34.00;15.40;;;;;;;7.17;80.22;99770.98;106867;1243;139015;-67
2022/11/04 05:45:03;;;;;;;37.30;16.60;;;;;;;7.16;80.35;99769.59;106934;1244;99162;-66
2022/11/04 05:47:28;;;;;;;36.80;16.60;;;;;;;7.16;80.40;99772.25;106856;1243;138706;-66
2022/11/04 05:49:54;;;;;;;36.30;15.40;;;;;;;7.16;80.40;99772.61;107018;1243;99080;-66
2022/11/04 05:52:19;;;;;;;35.30;16.70;;;;;;;7.16;80.44;99768.71;106963;1227;99060;-66
2022/11/04 05:54:44;;;;;;;30.40;16.20;;;;;;;7.18;80.47;99763.86;106810;1229;139182;-66
2022/11/04 05:57:09;;;;;;;34.00;16.40;;;;;;;7.21;80.49;99761.06;106964;1229;99884;-66
2022/11/04 05:59:35;;;;;;;34.60;16.60;;;;;;;7.23;80.54;99759.38;106795;1236;139470;-65
2022/11/04 06:02:02;;;;;;;38.30;17.30;;;;;;;7.24;80.52;99758.59;106929;1237;99143;-65
2022/11/04 06:04:27;;;;;;;40.80;18.60;;;;;;;7.28;80.58;99761.98;106942;1235;99169;-65
2022/11/04 06:06:52;;;;;;;40.70;17.40;;;;;;;7.28;80.59;99764.81;106803;1235;138576;-66
2022/11/04 06:09:17;;;;;;;34.70;16.80;;;;;;;7.29;80.59;99760.52;106982;1244;97939;-66
2022/11/04 06:11:44;;;;;;;35.30;16.00;;;;;;;7.29;80.63;99758.23;106868;1241;138497;-66
2022/11/04 06:14:09;;;;;;;32.60;17.30;;;;;;;7.28;80.67;99756.63;106977;1230;99135;-66
2022/11/04 06:16:35;;;;;;;37.10;17.70;;;;;;;7.29;80.73;99756.97;106994;1233;98941;-65
2022/11/04 06:19:00;;;;;;;37.30;16.90;;;;;;;7.30;80.75;99756.93;106889;1243;138326;-65
2022/11/04 06:21:31;;;;;;;37.70;17.10;;;;;;;7.29;80.84;99755.52;106950;1241;99032;-65
2022/11/04 06:23:57;;;;;;;37.80;16.20;;;;;;;7.31;80.78;99758.48;106716;1227;138512;-65
2022/11/04 06:26:25;;;;;;;37.00;17.00;;;;;;;7.32;80.87;99759.64;106913;1227;99014;-65
2022/11/04 06:28:50;;;;;;;36.30;15.80;;;;;;;7.36;80.84;99765.00;106836;1242;98922;-66
2022/11/04 06:31:16;;;;;;;41.50;17.00;;;;;;;7.39;80.95;99767.02;107254;1236;139218;-66
2022/11/04 06:33:44;;;;;;;32.70;15.70;;;;;;;7.41;80.95;99768.87;106714;1230;112854;-65
2022/11/04 06:36:12;;;;;;;41.00;17.70;;;;;;;7.45;81.06;99774.02;106665;1237;138876;-66
2022/11/04 06:38:38;;;;;;;41.00;17.80;;;;;;;7.47;81.07;99780.48;106721;1231;107401;-65
2022/11/04 06:41:05;;;;;;;37.40;16.70;;;;;;;7.52;81.10;99785.81;106624;1233;139128;-66
2022/11/04 06:43:30;;;;;;;38.30;18.00;;;;;;;7.55;81.18;99785.83;106874;1243;98987;-66
2022/11/04 06:46:00;;;;;;;33.20;17.80;;;;;;;7.60;81.18;99783.14;106876;1244;99332;-66
2022/11/04 06:48:29;;;;;;;43.80;17.40;;;;;;;7.65;81.25;99779.02;106622;1236;138366;-66
2022/11/04 06:50:55;;;;;;;37.80;17.10;;;;;;;7.69;81.22;99777.20;106776;1228;98942;-67
2022/11/04 06:53:20;;;;;;;37.10;16.80;;;;;;;7.73;81.37;99775.95;106725;1227;138862;-67
2022/11/04 06:55:45;;;;;;;40.90;18.10;;;;;;;7.77;81.32;99773.98;106827;1227;99415;-67
2022/11/04 06:58:11;;;;;;;34.10;16.10;;;;;;;7.81;81.28;99776.79;106764;1234;98956;-67
2022/11/04 07:00:36;;;;;;;31.00;16.90;;;;;;;7.85;81.33;99780.88;106710;1233;138534;-68
2022/11/04 07:03:01;;;;;;;37.20;16.60;;;;;;;7.88;81.25;99781.48;106721;1244;112501;-68
2022/11/04 07:05:27;;;;;;;33.50;16.40;;;;;;;7.90;81.37;99784.23;106613;1227;139162;-67
2022/11/04 07:07:52;;;;;;;45.10;18.10;;;;;;;7.92;81.38;99785.55;106731;1236;98938;-68
2022/11/04 07:10:17;;;;;;;37.70;17.80;;;;;;;7.95;81.38;99790.21;106738;1234;99483;-68
2022/11/04 07:12:43;;;;;;;39.10;16.80;;;;;;;7.97;81.39;99792.76;106702;1236;138450;-67
2022/11/04 07:15:09;;;;;;;39.60;17.20;;;;;;;8.00;81.40;99792.64;106788;1227;99025;-68
2022/11/04 07:17:34;;;;;;;40.20;17.50;;;;;;;8.03;81.37;99793.92;108865;1244;139731;-68
2022/11/04 07:20:00;;;;;;;33.20;16.40;;;;;;;8.06;81.42;99794.51;109081;1243;97431;-65
2022/11/04 07:22:25;;;;;;;39.50;17.20;;;;;;;8.08;81.45;99796.68;107612;1243;98978;-67
2022/11/04 07:24:50;;;;;;;44.30;18.90;;;;;;;8.13;81.49;99805.38;106629;1227;138696;-67
2022/11/04 07:27:15;;;;;;;36.70;16.70;;;;;;;8.16;81.58;99807.55;106884;1243;98953;-67
2022/11/04 07:29:41;;;;;;;39.50;18.30;;;;;;;8.21;81.49;99806.08;106775;1244;139157;-68
2022/11/04 07:32:06;;;;;;;37.10;17.10;;;;;;;8.25;81.57;99801.26;106972;1237;98959;-67
2022/11/04 07:34:31;;;;;;;43.80;17.70;;;;;;;8.29;81.56;99799.83;106915;1227;98918;-67
2022/11/04 07:36:56;;;;;;;39.00;17.60;;;;;;;8.33;81.56;99803.58;106906;1243;138403;-67
2022/11/04 07:39:22;;;;;;;35.60;18.90;;;;;;;8.37;81.60;99808.02;106924;1244;99049;-67
2022/11/04 07:41:47;;;;;;;53.60;21.30;;;;;;;8.40;81.61;99803.95;106842;1237;138965;-67
2022/11/04 07:44:13;;;;;;;49.10;21.10;;;;;;;8.43;81.57;99807.54;106893;1235;99026;-67
2022/11/04 07:46:38;;;;;;;54.50;18.90;;;;;;;8.46;81.53;99811.84;106826;1235;97903;-68
2022/11/04 07:49:04;;;;;;;37.40;17.20;;;;;;;8.50;81.58;99816.66;106701;1230;138691;-68
2022/11/04 07:51:31;;;;;;;49.20;18.30;;;;;;;8.54;81.57;99816.11;106785;1235;99154;-68
2022/11/04 07:53:57;;;;;;;35.90;17.70;;;;;;;8.58;81.59;99815.36;106637;1244;138706;-67
2022/11/04 07:56:22;;;;;;;34.70;18.50;;;;;;;8.64;81.70;99811.34;106764;1243;99016;-67
2022/11/04 07:58:49;;;;;;;34.30;16.50;;;;;;;8.71;81.65;99808.84;106878;1243;99106;-67
2022/11/04 08:01:17;;;;;;;35.40;17.00;;;;;;;8.78;81.65;99803.30;106628;1231;138778;-68
2022/11/04 08:03:42;;;;;;;39.40;17.20;;;;;;;8.90;81.63;99803.11;106784;1227;99224;-68
2022/11/04 08:06:10;;;;;;;33.50;17.00;;;;;;;9.02;81.67;99796.59;106734;1243;139401;-67
2022/11/04 08:08:36;;;;;;;37.90;16.10;;;;;;;9.16;81.81;99797.30;106827;1240;98976;-68
2022/11/04 08:11:27;;;;;;;33.70;17.00;;;;;;;9.30;81.86;99794.99;106780;1244;138699;-67
2022/11/04 08:13:53;;;;;;;37.90;19.00;;;;;;;9.46;81.85;99790.79;106610;1236;98986;-67
2022/11/04 08:16:21;;;;;;;40.70;19.00;;;;;;;9.59;81.77;99788.67;106648;1236;99934;-66
2022/11/04 08:18:51;;;;;;;33.90;17.00;;;;;;;9.70;81.66;99791.83;106872;1252;139293;-68
2022/11/04 08:21:17;;;;;;;44.60;16.80;;;;;;;9.79;81.73;99786.49;106833;1229;109002;-68
2022/11/04 08:23:42;;;;;;;31.20;15.80;;;;;;;9.89;81.73;99787.73;106790;1227;138743;-67
2022/11/04 08:26:11;;;;;;;30.90;15.40;;;;;;;10.00;81.66;99788.06;106958;1236;99622;-67
2022/11/04 08:28:37;;;;;;;33.00;16.60;;;;;;;10.08;81.61;99785.84;106925;1236;99417;-66
2022/11/04 08:31:24;;;;;;;30.90;15.60;;;;;;;10.15;81.58;99792.05;106891;1245;140378;-66
2022/11/04 08:33:51;;;;;;;31.30;14.20;;;;;;;10.21;81.57;99792.46;106806;1244;99067;-67
2022/11/04 08:36:22;;;;;;;41.60;16.50;;;;;;;10.27;81.55;99796.22;107921;1244;138679;-67
2022/11/04 08:38:47;;;;;;;33.00;16.00;;;;;;;10.33;81.41;99796.60;106916;1243;117591;-66
2022/11/04 08:41:15;;;;;;;35.60;16.40;;;;;;;10.40;81.45;99800.80;106777;1235;139969;-66
2022/11/04 08:43:41;;;;;;;41.40;17.90;;;;;;;10.50;81.51;99803.66;106891;1243;98994;-67
2022/11/04 08:46:08;;;;;;;34.50;16.20;;;;;;;10.58;81.41;99795.89;106992;1243;99859;-66
2022/11/04 08:48:36;;;;;;;33.20;16.10;;;;;;;10.65;81.45;99790.98;106858;1251;140465;-66
2022/11/04 08:51:02;;;;;;;32.10;15.00;;;;;;;10.73;81.36;99788.92;106934;1248;98948;-66
2022/11/04 08:53:27;;;;;;;34.20;16.10;;;;;;;10.81;81.27;99794.89;106987;1251;139783;-66
2022/11/04 08:55:54;;;;;;;41.40;16.60;;;;;;;10.87;81.21;99791.70;106959;1236;100028;-69
2022/11/04 08:58:22;;;;;;;32.90;15.20;;;;;;;10.94;81.17;99789.67;106927;1227;112428;-67
2022/11/04 09:00:48;;;;;;;30.70;14.90;;;;;;;11.02;81.03;99791.50;106790;1244;140136;-66
2022/11/04 09:03:14;;;;;;;37.20;15.60;;;;;;;11.10;81.04;99794.65;107072;1251;97847;-67
2022/11/04 09:05:44;;;;;;;33.00;15.70;;;;;;;11.14;80.92;99791.54;106867;1233;140095;-67
2022/11/04 09:08:12;;;;;;;39.90;17.70;;;;;;;11.19;80.88;99786.21;106958;1243;112365;-67
2022/11/04 09:10:43;;;;;;;34.90;14.40;;;;;;;11.25;80.82;99784.81;106905;1243;99248;-67
2022/11/04 09:13:10;;;;;;;34.50;15.20;;;;;;;11.32;80.85;99781.88;106839;1251;138681;-67
2022/11/04 09:15:36;;;;;;;31.30;14.00;;;;;;;11.36;80.67;99778.93;106873;1243;98954;-67
2022/11/04 09:18:02;;;;;;;33.50;16.00;;;;;;;11.42;80.65;99774.66;106836;1244;138694;-66
2022/11/04 09:20:27;;;;;;;32.50;16.80;;;;;;;11.48;80.66;99771.95;106970;1243;99065;-66
2022/11/04 09:22:54;;;;;;;37.70;15.10;;;;;;;11.55;80.56;99774.17;106893;1235;99142;-66
2022/11/04 09:25:20;;;;;;;33.90;14.80;;;;;;;11.59;80.40;99768.41;106819;1242;139189;-67
2022/11/04 09:27:45;;;;;;;34.00;15.70;;;;;;;11.60;80.33;99767.24;106959;1234;99069;-66
2022/11/04 09:30:11;;;;;;;30.90;15.10;;;;;;;11.65;80.44;99764.09;106865;1243;138868;-67
2022/11/04 09:32:36;;;;;;;35.40;15.00;;;;;;;11.67;80.16;99762.70;106936;1244;99037;-66
2022/11/04 09:35:01;;;;;;;34.30;14.30;;;;;;;11.72;80.21;99759.55;106941;1242;139774;-66
2022/11/04 09:37:27;;;;;;;30.30;15.30;;;;;;;11.76;80.11;99755.36;106922;1250;98923;-67
2022/11/04 09:39:52;;;;;;;31.30;14.60;;;;;;;11.79;80.07;99755.73;106997;1227;99038;-67
2022/11/04 09:42:23;;;;;;;33.80;15.30;;;;;;;11.83;79.91;99752.64;106813;1243;138643;-67
2022/11/04 09:45:00;;;;;;;28.90;14.20;;;;;;;11.89;79.98;99753.11;106946;1242;98993;-67
2022/11/04 09:47:35;;;;;;;30.90;14.40;;;;;;;11.98;79.86;99752.94;106272;1254;635643;-67
2022/11/04 09:50:01;;;;;;;31.60;14.50;;;;;;;11.98;79.75;99752.94;106586;1242;95217;-67
2022/11/04 09:52:35;;;;;;;33.60;15.30;;;;;;;11.99;79.60;99748.17;106653;1250;94048;-68
2022/11/04 09:55:17;;;;;;;37.00;16.50;;;;;;;12.01;79.56;99746.98;106416;1257;138115;-68
2022/11/04 09:57:42;;;;;;;;;;;;;;;11.98;79.34;99742.16;106522;1248;99280;-66
2022/11/04 10:00:16;;;;;;;29.10;15.10;;;;;;;11.97;79.41;99737.06;106351;1257;123557;-66
2022/11/04 10:02:46;;;;;;;30.80;14.50;;;;;;;12.02;79.42;99734.20;106559;1249;94541;-66
2022/11/04 10:05:21;;;;;;;29.00;14.90;;;;;;;12.07;79.30;99728.01;106417;1250;138275;-66
2022/11/04 10:08:13;;;;;;;31.10;15.80;;;;;;;12.08;79.22;99727.04;106548;1243;107091;-67
2022/11/04 10:11:04;;;;;;;29.00;14.00;;;;;;;12.11;79.21;99718.41;106394;1254;99195;-66
2022/11/04 10:13:38;;;;;;;31.30;13.20;;;;;;;12.12;79.16;99712.67;106328;1242;107467;-66
2022/11/04 10:16:06;;;;;;;28.50;14.30;;;;;;;12.11;78.99;99709.34;106503;1251;94861;-66
2022/11/04 10:19:11;;;;;;;33.10;14.30;;;;;;;12.13;78.95;99707.38;106309;1249;138035;-66
2022/11/04 10:21:48;;;;;;;31.50;15.20;;;;;;;12.15;78.83;99708.89;106338;1238;108961;-66
2022/11/04 10:24:39;;;;;;;35.90;15.40;;;;;;;12.17;78.82;99709.61;106319;1240;138066;-65
2022/11/04 10:27:15;;;;;;;30.90;14.80;;;;;;;12.22;78.75;99716.08;106265;1241;108217;-68
2022/11/04 10:30:00;;;;;;;35.30;16.00;;;;;;;12.25;78.54;99722.20;106166;1238;138182;-67
2022/11/04 10:32:44;;;;;;;29.00;14.90;;;;;;;12.30;78.54;99722.77;106348;1238;93995;-67
2022/11/04 10:35:41;;;;;;;33.00;16.80;;;;;;;12.36;78.46;99712.67;106267;1241;137902;-68
2022/11/04 10:38:19;;;;;;;25.90;14.00;;;;;;;12.39;78.36;99710.50;106478;1242;99686;-67
2022/11/04 10:40:48;;;;;;;47.60;17.50;;;;;;;12.37;78.18;99712.23;106488;1241;107415;-67
2022/11/04 10:43:20;;;;;;;34.50;14.90;;;;;;;12.37;78.16;99726.22;106392;1240;137864;-68
2022/11/04 10:46:06;;;;;;;32.40;13.90;;;;;;;12.35;77.94;99726.34;106496;1240;94988;-68
2022/11/04 10:48:42;;;;;;;26.10;13.10;;;;;;;12.33;77.85;99720.19;106350;1242;137840;-68
2022/11/04 10:51:07;;;;;;;27.60;13.90;;;;;;;12.31;77.88;99719.98;106577;1239;99441;-68
2022/11/04 10:53:33;;;;;;;33.70;13.60;;;;;;;12.31;77.79;99717.48;106468;1238;139053;-67
2022/11/04 10:56:01;;;;;;;24.40;12.60;;;;;;;12.32;77.77;99711.50;106536;1247;94824;-68
2022/11/04 10:58:30;;;;;;;30.20;13.70;;;;;;;12.32;77.66;99698.47;106457;1240;107856;-67
2022/11/04 11:00:56;;;;;;;28.40;12.50;;;;;;;12.31;77.59;99693.49;106396;1233;138467;-67
2022/11/04 11:03:27;;;;;;;37.00;14.20;;;;;;;12.31;77.57;99694.02;106418;1240;95053;-66
2022/11/04 11:06:08;;;;;;;27.60;13.30;;;;;;;12.30;77.42;99701.59;106322;1240;138396;-67
2022/11/04 11:08:36;;;;;;;31.50;12.60;;;;;;;12.27;77.30;99703.06;106446;1240;96413;-67
2022/11/04 11:11:03;;;;;;;29.10;13.30;;;;;;;12.25;77.24;99699.64;106533;1247;108356;-68
2022/11/04 11:13:35;;;;;;;27.30;13.00;;;;;;;12.25;77.22;99698.88;106497;1257;98806;-68
2022/11/04 11:16:07;;;;;;;28.20;12.80;;;;;;;12.25;77.12;99697.79;106399;1252;105516;-68
2022/11/04 11:18:35;;;;;;;31.00;13.10;;;;;;;12.28;77.18;99691.53;106369;1240;137901;-67
2022/11/04 11:21:20;;;;;;;29.00;13.50;;;;;;;12.33;77.13;99690.33;106439;1232;94980;-69
2022/11/04 11:23:50;;;;;;;28.80;13.10;;;;;;;12.29;76.89;99690.17;106350;1250;137838;-69
2022/11/04 11:26:28;;;;;;;32.30;12.40;;;;;;;12.25;76.91;99687.77;106400;1240;99902;-65
2022/11/04 11:28:56;;;;;;;28.30;13.00;;;;;;;12.18;76.74;99680.02;106496;1240;108064;-67
2022/11/04 11:31:25;;;;;;;29.50;13.10;;;;;;;12.17;76.82;99680.25;106349;1240;138174;-67
2022/11/04 11:33:59;;;;;;;28.90;12.90;;;;;;;12.20;76.73;99685.61;106515;1240;94978;-69
2022/11/04 11:36:28;;;;;;;26.40;11.60;;;;;;;12.21;76.74;99685.89;106290;1242;137709;-69
2022/11/04 11:39:20;;;;;;;31.10;13.50;;;;;;;12.18;76.65;99697.71;106579;1256;99491;-69
2022/11/04 11:42:05;;;;;;;26.60;13.20;;;;;;;12.19;76.66;99699.30;106343;1249;139116;-67
2022/11/04 11:44:46;;;;;;;27.00;12.80;;;;;;;12.19;76.54;99697.87;106496;1240;94969;-68
2022/11/04 11:47:24;;;;;;;25.80;12.70;;;;;;;12.18;76.54;99698.07;106383;1250;138471;-68
2022/11/04 11:50:34;;;;;;;22.80;12.40;;;;;;;12.16;76.41;99695.35;106565;1250;108145;-68
2022/11/04 11:53:14;;;;;;;25.10;12.80;;;;;;;12.08;76.31;99691.04;106421;1238;99363;-68
2022/11/04 11:55:46;;;;;;;24.80;12.10;;;;;;;12.08;76.38;99689.29;106453;1239;107584;-68
2022/11/04 11:58:24;;;;;;;25.40;12.50;;;;;;;12.07;76.36;99682.34;106535;1240;96043;-67